createdAt,value
2023-03-02T00:01:02.914Z,98313.20
2023-03-02T00:03:34.585Z,98309.52
2023-03-02T00:06:07.778Z,98306.79
2023-03-02T00:08:39.668Z,98308.00
2023-03-02T00:11:11.342Z,98307.00
2023-03-02T00:13:40.598Z,98300.97
2023-03-02T00:16:11.988Z,98298.83
2023-03-02T00:18:41.588Z,98298.39
2023-03-02T00:21:12.733Z,98298.42
2023-03-02T00:23:45.021Z,98297.05
2023-03-02T00:26:16.226Z,98296.43
2023-03-02T00:28:47.304Z,98292.93
2023-03-02T00:31:18.532Z,98291.81
2023-03-02T00:33:51.246Z,98294.94
2023-03-02T00:36:24.543Z,98299.63
2023-03-02T00:38:55.666Z,98296.89
2023-03-02T00:41:26.708Z,98294.67
2023-03-02T00:43:57.995Z,98291.05
2023-03-02T00:46:30.113Z,98288.00
2023-03-02T00:49:01.287Z,98286.05
2023-03-02T00:51:32.263Z,98284.38
2023-03-02T00:54:03.250Z,98281.16
2023-03-02T00:56:34.850Z,98281.31
2023-03-02T00:59:11.198Z,98279.74
2023-03-02T01:01:42.217Z,98274.55
2023-03-02T01:04:13.507Z,98269.56
2023-03-02T01:06:47.242Z,98266.81
2023-03-02T01:09:18.425Z,98267.37
2023-03-02T01:11:49.506Z,98264.98
2023-03-02T01:14:20.748Z,98262.69
2023-03-02T01:16:51.820Z,98263.27
2023-03-02T01:19:22.764Z,98258.34
2023-03-02T01:21:53.695Z,98254.14
2023-03-02T01:24:24.818Z,98255.40
2023-03-02T01:26:55.948Z,98252.35
2023-03-02T01:29:26.999Z,98249.83
2023-03-02T01:31:58.268Z,98252.20
2023-03-02T01:34:29.503Z,98261.22
2023-03-02T01:37:00.791Z,98258.84
2023-03-02T01:39:31.828Z,98252.70
2023-03-02T01:42:02.810Z,98251.91
2023-03-02T01:44:43.349Z,98255.02
2023-03-02T01:47:19.983Z,98250.98
2023-03-02T01:49:57.212Z,98247.61
2023-03-02T01:52:30.438Z,98244.61
2023-03-02T01:55:05.627Z,98243.40
2023-03-02T01:57:43.833Z,98240.22
2023-03-02T02:00:17.220Z,98237.95
2023-03-02T02:02:48.943Z,98240.71
2023-03-02T02:05:24.084Z,98236.59
2023-03-02T02:07:55.230Z,98233.52
2023-03-02T02:10:26.326Z,98229.36
2023-03-02T02:12:57.945Z,98221.75
2023-03-02T02:15:29.251Z,98219.23
2023-03-02T02:17:58.825Z,98214.24
2023-03-02T02:20:36.710Z,98216.95
2023-03-02T02:23:26.157Z,98211.92
2023-03-02T02:26:13.875Z,98207.61
2023-03-02T02:28:50.157Z,98204.08
2023-03-02T02:31:26.639Z,98207.38
2023-03-02T02:34:01.846Z,98207.09
2023-03-02T02:36:39.349Z,98208.15
2023-03-02T02:39:12.814Z,98209.48
2023-03-02T02:41:47.299Z,98208.84
2023-03-02T02:44:19.747Z,98202.70
2023-03-02T02:46:50.744Z,98202.20
2023-03-02T02:49:30.088Z,98202.69
2023-03-02T02:52:01.427Z,98200.77
2023-03-02T02:54:34.598Z,98195.71
2023-03-02T02:57:06.904Z,98196.77
2023-03-02T02:59:43.397Z,98192.92
2023-03-02T03:02:19.720Z,98184.19
2023-03-02T03:04:52.106Z,98183.05
2023-03-02T03:07:25.801Z,98183.96
2023-03-02T03:10:02.929Z,98181.62
2023-03-02T03:12:36.134Z,98179.55
2023-03-02T03:15:10.145Z,98179.91
2023-03-02T03:17:41.248Z,98180.74
2023-03-02T03:20:18.042Z,98180.84
2023-03-02T03:22:49.230Z,98175.23
2023-03-02T03:25:41.784Z,98173.59
2023-03-02T03:28:13.158Z,98168.77
2023-03-02T03:30:49.043Z,98172.21
2023-03-02T03:33:28.760Z,98175.55
2023-03-02T03:36:00.873Z,98169.71
2023-03-02T03:38:33.058Z,98170.15
2023-03-02T03:41:04.239Z,98166.02
2023-03-02T03:43:35.569Z,98167.94
2023-03-02T03:46:07.335Z,98171.70
2023-03-02T03:48:36.834Z,98166.23
2023-03-02T03:51:09.770Z,98164.86
2023-03-02T03:53:41.298Z,98163.48
2023-03-02T03:56:11.090Z,98165.89
2023-03-02T03:58:42.203Z,98166.23
2023-03-02T04:01:13.343Z,98164.99
2023-03-02T04:03:44.375Z,98160.31
2023-03-02T04:06:18.978Z,98161.48
2023-03-02T04:08:50.040Z,98158.81
2023-03-02T04:11:21.072Z,98157.45
2023-03-02T04:13:52.069Z,98158.66
2023-03-02T04:16:23.070Z,98158.55
2023-03-02T04:18:54.108Z,98155.34
2023-03-02T04:21:25.613Z,98155.30
2023-03-02T04:23:57.439Z,98156.85
2023-03-02T04:26:31.214Z,98162.74
2023-03-02T04:29:03.053Z,98163.20
2023-03-02T04:31:35.179Z,98163.29
2023-03-02T04:34:06.677Z,98166.03
2023-03-02T04:36:41.401Z,98165.48
2023-03-02T04:39:14.849Z,98164.56
2023-03-02T04:41:46.971Z,98166.16
2023-03-02T04:44:19.860Z,98167.86
2023-03-02T04:46:51.737Z,98165.73
2023-03-02T04:49:23.074Z,98162.22
2023-03-02T04:51:54.248Z,98164.08
2023-03-02T04:54:25.916Z,98165.91
2023-03-02T04:56:57.968Z,98166.67
2023-03-02T04:59:30.585Z,98163.70
2023-03-02T05:02:02.739Z,98168.88
2023-03-02T05:04:34.528Z,98165.13
2023-03-02T05:07:04.393Z,98163.74
2023-03-02T05:09:35.684Z,98161.04
2023-03-02T05:12:07.625Z,98163.86
2023-03-02T05:14:37.006Z,98161.77
2023-03-02T05:17:08.021Z,98160.23
2023-03-02T05:19:39.053Z,98160.06
2023-03-02T05:22:10.156Z,98164.86
2023-03-02T05:24:41.210Z,98162.73
2023-03-02T05:27:12.455Z,98161.34
2023-03-02T05:29:43.632Z,98159.45
2023-03-02T05:32:17.417Z,98161.61
2023-03-02T05:34:48.724Z,98157.47
2023-03-02T05:37:19.836Z,98157.52
2023-03-02T05:39:50.952Z,98160.11
2023-03-02T05:42:22.213Z,98163.63
2023-03-02T05:44:53.306Z,98163.83
2023-03-02T05:47:24.347Z,98163.71
2023-03-02T05:49:55.442Z,98166.45
2023-03-02T05:52:26.307Z,98169.13
2023-03-02T05:54:59.381Z,98168.77
2023-03-02T05:57:30.865Z,98169.51
2023-03-02T06:00:01.928Z,98171.29
2023-03-02T06:02:34.548Z,98175.88
2023-03-02T06:05:06.285Z,98174.88
2023-03-02T06:07:35.720Z,98172.67
2023-03-02T06:10:08.312Z,98175.22
2023-03-02T06:12:39.704Z,98178.59
2023-03-02T06:15:11.848Z,98180.29
2023-03-02T06:17:43.041Z,98180.48
2023-03-02T06:20:16.167Z,98179.20
2023-03-02T06:22:48.350Z,98180.86
2023-03-02T06:25:22.535Z,98181.86
2023-03-02T06:27:54.781Z,98181.20
2023-03-02T06:30:27.978Z,98177.70
2023-03-02T06:32:59.964Z,98175.61
2023-03-02T06:35:31.163Z,98177.27
2023-03-02T06:38:01.100Z,98174.41
2023-03-02T06:40:32.591Z,98171.09
2023-03-02T06:43:04.432Z,98173.30
2023-03-02T06:45:35.674Z,98174.61
2023-03-02T06:48:07.567Z,98173.44
2023-03-02T06:50:38.865Z,98174.00
2023-03-02T06:53:10.238Z,98174.80
2023-03-02T06:55:41.212Z,98174.98
2023-03-02T06:58:13.265Z,98173.87
2023-03-02T07:00:44.094Z,98171.25
2023-03-02T07:03:15.230Z,98170.64
2023-03-02T07:05:48.988Z,98169.34
2023-03-02T07:08:20.113Z,98166.36
2023-03-02T07:10:51.231Z,98160.48
2023-03-02T07:13:22.541Z,98159.20
2023-03-02T07:15:54.978Z,98158.99
2023-03-02T07:18:26.222Z,98158.06
2023-03-02T07:20:57.213Z,98157.35
2023-03-02T07:23:28.658Z,98155.38
2023-03-02T07:25:58.283Z,98154.95
2023-03-02T07:28:29.493Z,98154.79
2023-03-02T07:31:00.676Z,98153.18
2023-03-02T07:33:31.573Z,98155.75
2023-03-02T07:36:02.950Z,98153.10
2023-03-02T07:38:33.908Z,98150.30
2023-03-02T07:41:09.440Z,98147.91
2023-03-02T07:43:40.780Z,98149.18
2023-03-02T07:46:12.450Z,98148.75
2023-03-02T07:48:41.844Z,98149.77
2023-03-02T07:51:12.933Z,98149.70
2023-03-02T07:53:44.101Z,98149.60
2023-03-02T07:56:15.397Z,98152.88
2023-03-02T07:58:44.934Z,98152.14
2023-03-02T08:01:16.150Z,98149.80
2023-03-02T08:03:45.695Z,98148.58
2023-03-02T08:06:16.926Z,98149.42
2023-03-02T08:08:46.769Z,98146.46
2023-03-02T08:11:19.585Z,98145.55
2023-03-02T08:13:50.979Z,98147.14
2023-03-02T08:16:23.186Z,98148.34
2023-03-02T08:18:54.757Z,98146.02
2023-03-02T08:21:25.413Z,98140.57
2023-03-02T08:23:56.381Z,98139.64
2023-03-02T08:26:27.318Z,98139.08
2023-03-02T08:28:58.725Z,98134.54
2023-03-02T08:31:31.654Z,98135.13
2023-03-02T08:34:03.146Z,98136.03
2023-03-02T08:36:34.748Z,98139.67
2023-03-02T08:39:06.093Z,98136.98
2023-03-02T08:41:37.308Z,98134.51
2023-03-02T08:44:09.146Z,98134.29
2023-03-02T08:46:40.264Z,98133.07
2023-03-02T08:49:11.458Z,98133.66
2023-03-02T08:51:43.116Z,98130.61
2023-03-02T08:54:14.991Z,98127.15
2023-03-02T08:56:46.345Z,98130.77
2023-03-02T08:59:18.448Z,98131.65
2023-03-02T09:01:49.806Z,98127.63
2023-03-02T09:04:21.023Z,98128.89
2023-03-02T09:06:52.219Z,98131.08
2023-03-02T09:09:23.013Z,98132.29
2023-03-02T09:11:54.164Z,98133.18
2023-03-02T09:14:25.125Z,98131.74
2023-03-02T09:16:54.756Z,98129.30
2023-03-02T09:19:25.999Z,98125.27
2023-03-02T09:21:55.467Z,98122.51
2023-03-02T09:24:26.936Z,98125.54
2023-03-02T09:26:56.457Z,98124.50
2023-03-02T09:29:27.903Z,98122.29
2023-03-02T09:31:57.601Z,98118.29
2023-03-02T09:34:29.496Z,98121.08
2023-03-02T09:37:00.526Z,98117.06
2023-03-02T09:39:31.552Z,98112.94
2023-03-02T09:42:16.019Z,98109.87
2023-03-02T09:45:05.001Z,98105.96
2023-03-02T09:47:46.119Z,98100.20
2023-03-02T09:50:31.569Z,98104.52
2023-03-02T09:53:26.158Z,98108.72
2023-03-02T09:56:00.385Z,98112.06
2023-03-02T09:58:39.336Z,98111.47
2023-03-02T10:01:17.349Z,98109.53
2023-03-02T10:03:56.523Z,98107.55
2023-03-02T10:06:30.192Z,98107.71
2023-03-02T10:09:01.817Z,98107.79
2023-03-02T10:11:43.100Z,98108.09
2023-03-02T10:14:19.441Z,98108.59
2023-03-02T10:16:53.901Z,98112.31
2023-03-02T10:19:32.879Z,98108.88
2023-03-02T10:22:12.810Z,98104.27
2023-03-02T10:24:54.805Z,98098.23
2023-03-02T10:27:31.204Z,98096.06
2023-03-02T10:30:07.541Z,98091.14
2023-03-02T10:32:44.511Z,98088.95
2023-03-02T10:35:18.198Z,98085.19
2023-03-02T10:37:51.793Z,98085.16
2023-03-02T10:40:42.912Z,98081.22
2023-03-02T10:43:20.102Z,98078.58
2023-03-02T10:46:01.653Z,98075.79
2023-03-02T10:48:33.354Z,98068.96
2023-03-02T10:51:04.458Z,98067.05
2023-03-02T10:53:35.579Z,98063.84
2023-03-02T10:56:20.782Z,98061.36
2023-03-02T10:58:51.780Z,98061.94
2023-03-02T11:01:21.494Z,98057.95
2023-03-02T11:04:00.824Z,98056.70
2023-03-02T11:06:33.886Z,98056.23
2023-03-02T11:09:07.720Z,98053.73
2023-03-02T11:11:39.042Z,98051.48
2023-03-02T11:14:17.773Z,98046.33
2023-03-02T11:16:49.042Z,98045.70
2023-03-02T11:19:26.819Z,98042.67
2023-03-02T11:22:04.172Z,98036.69
2023-03-02T11:24:42.696Z,98034.08
2023-03-02T11:27:22.685Z,98036.30
2023-03-02T11:30:00.822Z,98033.35
2023-03-02T11:32:38.489Z,98026.41
2023-03-02T11:35:15.063Z,98025.20
2023-03-02T11:37:50.839Z,98023.53
2023-03-02T11:40:30.339Z,98012.80
2023-03-02T11:43:05.018Z,98014.25
2023-03-02T11:45:42.791Z,98012.73
2023-03-02T11:48:23.669Z,98007.64
2023-03-02T11:50:59.954Z,98005.55
2023-03-02T11:53:37.371Z,98001.88
2023-03-02T11:56:08.946Z,97998.92
2023-03-02T11:58:40.964Z,97997.19
2023-03-02T12:01:18.418Z,97996.67
2023-03-02T12:03:49.703Z,97993.82
2023-03-02T12:06:38.655Z,97993.03
2023-03-02T12:09:30.980Z,97993.74
2023-03-02T12:12:18.722Z,97989.71
2023-03-02T12:14:49.950Z,97983.32
2023-03-02T12:17:32.254Z,97985.39
2023-03-02T12:20:27.163Z,97984.17
2023-03-02T12:23:10.525Z,97981.44
2023-03-02T12:25:44.016Z,97976.38
2023-03-02T12:28:36.364Z,97976.44
2023-03-02T12:31:13.913Z,97970.75
2023-03-02T12:33:48.806Z,97971.79
2023-03-02T12:36:27.223Z,97966.76
2023-03-02T12:39:21.285Z,97963.86
2023-03-02T12:42:16.356Z,97959.96
2023-03-02T12:44:57.472Z,97954.36
2023-03-02T12:47:30.467Z,97952.48
2023-03-02T12:50:05.639Z,97951.88
2023-03-02T12:52:38.272Z,97941.00
2023-03-02T12:55:17.906Z,97936.86
2023-03-02T12:57:53.544Z,97934.57
2023-03-02T13:00:26.975Z,97930.52
2023-03-02T13:02:59.793Z,97931.73
2023-03-02T13:05:36.533Z,97931.38
2023-03-02T13:08:10.790Z,97927.91
2023-03-02T13:10:44.699Z,97927.95
2023-03-02T13:13:21.493Z,97924.20
2023-03-02T13:15:54.961Z,97921.35
2023-03-02T13:18:31.885Z,97918.02
2023-03-02T13:21:04.551Z,97913.55
2023-03-02T13:23:36.961Z,97915.71
2023-03-02T13:26:08.528Z,97915.46
2023-03-02T13:28:41.275Z,97913.04
2023-03-02T13:31:22.174Z,97912.30
2023-03-02T13:33:56.997Z,97909.48
2023-03-02T13:36:30.520Z,97905.70
2023-03-02T13:39:03.411Z,97906.54
2023-03-02T13:41:36.712Z,97902.55
2023-03-02T13:44:21.683Z,97901.38
2023-03-02T13:46:53.148Z,97893.50
2023-03-02T13:49:33.555Z,97891.27
2023-03-02T13:52:08.475Z,97889.63
2023-03-02T13:54:43.316Z,97889.94
2023-03-02T13:57:20.062Z,97883.48
2023-03-02T13:59:51.352Z,97880.91
2023-03-02T14:02:27.262Z,97879.93
2023-03-02T14:04:58.914Z,97872.84
2023-03-02T14:07:29.937Z,97868.17
2023-03-02T14:10:00.926Z,97865.46
2023-03-02T14:12:34.034Z,97862.80
2023-03-02T14:15:06.812Z,97858.85
2023-03-02T14:17:38.348Z,97853.77
2023-03-02T14:20:13.223Z,97850.70
2023-03-02T14:22:44.772Z,97848.66
2023-03-02T14:25:16.530Z,97846.07
2023-03-02T14:27:48.275Z,97845.81
2023-03-02T14:30:21.884Z,97842.36
2023-03-02T14:32:53.011Z,97838.46
2023-03-02T14:35:26.194Z,97834.77
2023-03-02T14:37:57.329Z,97832.89
2023-03-02T14:40:29.563Z,97829.08
2023-03-02T14:43:00.526Z,97827.28
2023-03-02T14:45:31.601Z,97827.23
2023-03-02T14:48:02.599Z,97829.85
2023-03-02T14:50:43.661Z,97826.13
2023-03-02T14:53:20.001Z,97823.05
2023-03-02T14:55:51.352Z,97821.45
2023-03-02T14:58:29.407Z,97822.26
2023-03-02T15:01:00.581Z,97820.88
2023-03-02T15:03:31.929Z,97820.35
2023-03-02T15:06:03.088Z,97823.25
2023-03-02T15:08:34.481Z,97822.46
2023-03-02T15:11:05.808Z,97820.79
2023-03-02T15:13:37.024Z,97812.16
2023-03-02T15:16:10.741Z,97814.52
2023-03-02T15:18:42.533Z,97818.80
2023-03-02T15:21:18.376Z,97822.17
2023-03-02T15:23:51.017Z,97823.52
2023-03-02T15:26:21.964Z,97823.42
2023-03-02T15:28:54.046Z,97826.54
2023-03-02T15:31:25.165Z,97823.34
2023-03-02T15:33:57.527Z,97822.23
2023-03-02T15:36:28.697Z,97823.46
2023-03-02T15:39:00.195Z,97823.59
2023-03-02T15:41:31.336Z,97824.91
2023-03-02T15:44:02.823Z,97826.15
2023-03-02T15:46:33.848Z,97825.84
2023-03-02T15:49:04.804Z,97827.61
2023-03-02T15:51:36.372Z,97826.18
2023-03-02T15:54:11.003Z,97824.85
2023-03-02T15:56:44.360Z,97824.86
2023-03-02T15:59:16.549Z,97826.02
2023-03-02T16:01:47.606Z,97821.89
2023-03-02T16:04:19.186Z,97823.23
2023-03-02T16:06:50.336Z,97822.98
2023-03-02T16:09:21.908Z,97823.48
2023-03-02T16:11:53.304Z,97818.63
2023-03-02T16:14:24.654Z,97816.76
2023-03-02T16:16:55.958Z,97816.85
2023-03-02T16:19:26.969Z,97820.15
2023-03-02T16:21:58.142Z,97821.81
2023-03-02T16:24:27.612Z,97823.58
2023-03-02T16:26:58.586Z,97820.62
2023-03-02T16:29:31.109Z,97820.20
2023-03-02T16:32:02.379Z,97822.02
2023-03-02T16:34:33.508Z,97820.46
2023-03-02T16:37:03.076Z,97822.77
2023-03-02T16:39:34.497Z,97822.74
2023-03-02T16:42:05.729Z,97825.55
2023-03-02T16:44:37.908Z,97829.01
2023-03-02T16:47:09.176Z,97829.55
2023-03-02T16:49:40.486Z,97836.39
2023-03-02T16:52:10.082Z,97835.96
2023-03-02T16:54:41.434Z,97840.73
2023-03-02T16:57:12.316Z,97842.24
2023-03-02T16:59:43.435Z,97844.50
2023-03-02T17:02:15.750Z,97845.83
2023-03-02T17:04:47.016Z,97849.41
2023-03-02T17:07:19.742Z,97847.98
2023-03-02T17:09:50.862Z,97854.29
2023-03-02T17:12:20.541Z,97856.57
2023-03-02T17:14:51.486Z,97858.52
2023-03-02T17:17:22.823Z,97856.48
2023-03-02T17:19:54.370Z,97860.05
2023-03-02T17:22:25.962Z,97861.03
2023-03-02T17:24:57.496Z,97862.73
2023-03-02T17:27:28.895Z,97865.30
2023-03-02T17:30:00.133Z,97864.56
2023-03-02T17:32:31.509Z,97862.34
2023-03-02T17:35:02.572Z,97867.81
2023-03-02T17:37:33.648Z,97866.17
2023-03-02T17:40:05.283Z,97867.34
2023-03-02T17:42:39.059Z,97869.23
2023-03-02T17:45:16.299Z,97872.06
2023-03-02T17:47:47.384Z,97876.02
2023-03-02T17:50:19.335Z,97872.02
2023-03-02T17:52:50.552Z,97870.02
2023-03-02T17:55:22.107Z,97872.94
2023-03-02T17:57:53.474Z,97872.55
2023-03-02T18:00:26.131Z,97875.64
2023-03-02T18:02:57.190Z,97877.59
2023-03-02T18:05:28.808Z,97879.38
2023-03-02T18:08:00.240Z,97879.49
2023-03-02T18:10:31.766Z,97876.41
2023-03-02T18:13:02.748Z,97880.57
2023-03-02T18:15:34.616Z,97877.17
2023-03-02T18:18:05.833Z,97877.48
2023-03-02T18:20:37.468Z,97879.95
2023-03-02T18:23:08.899Z,97876.80
2023-03-02T18:25:40.071Z,97879.45
2023-03-02T18:28:11.188Z,97874.52
2023-03-02T18:30:42.893Z,97878.31
2023-03-02T18:33:12.389Z,97883.98
2023-03-02T18:35:43.859Z,97885.23
2023-03-02T18:38:15.254Z,97882.05
2023-03-02T18:40:46.799Z,97889.20
2023-03-02T18:43:16.320Z,97884.63
2023-03-02T18:45:47.457Z,97887.09
2023-03-02T18:48:18.679Z,97885.45
2023-03-02T18:50:50.415Z,97889.20
2023-03-02T18:53:21.910Z,97890.80
2023-03-02T18:55:52.564Z,97889.11
2023-03-02T18:58:25.193Z,97890.11
2023-03-02T19:00:56.745Z,97889.80
2023-03-02T19:03:28.194Z,97888.77
2023-03-02T19:05:59.463Z,97889.42
2023-03-02T19:08:30.952Z,97894.68
2023-03-02T19:11:02.149Z,97894.42
2023-03-02T19:13:33.382Z,97897.44
2023-03-02T19:16:04.595Z,97897.35
2023-03-02T19:18:35.575Z,97900.77
2023-03-02T19:21:07.609Z,97900.13
2023-03-02T19:23:38.991Z,97897.63
2023-03-02T19:26:10.273Z,97893.21
2023-03-02T19:28:40.019Z,97890.35
2023-03-02T19:31:11.697Z,97887.16
2023-03-02T19:33:45.331Z,97889.64
2023-03-02T19:36:16.780Z,97892.59
2023-03-02T19:38:48.041Z,97894.33
2023-03-02T19:41:21.112Z,97893.37
2023-03-02T19:43:52.252Z,97892.90
2023-03-02T19:46:23.382Z,97891.88
2023-03-02T19:48:54.820Z,97888.81
2023-03-02T19:51:26.207Z,97887.45
2023-03-02T19:53:57.982Z,97890.70
2023-03-02T19:56:33.095Z,97893.49
2023-03-02T19:59:04.178Z,97896.55
2023-03-02T20:01:36.209Z,97899.66
2023-03-02T20:04:07.885Z,97904.77
2023-03-02T20:06:38.188Z,97902.39
2023-03-02T20:09:08.238Z,97905.16
2023-03-02T20:11:39.224Z,97907.73
2023-03-02T20:14:10.227Z,97907.45
2023-03-02T20:16:41.453Z,97907.83
2023-03-02T20:19:14.303Z,97914.14
2023-03-02T20:21:45.509Z,97915.08
2023-03-02T20:24:17.052Z,97917.61
2023-03-02T20:26:48.465Z,97915.02
2023-03-02T20:29:20.402Z,97917.46
2023-03-02T20:31:51.941Z,97921.84
2023-03-02T20:34:23.380Z,97919.13
2023-03-02T20:36:54.378Z,97919.55
2023-03-02T20:39:30.108Z,97916.85
2023-03-02T20:42:01.911Z,97917.33
2023-03-02T20:44:34.195Z,97920.52
2023-03-02T20:47:09.284Z,97919.61
2023-03-02T20:49:40.848Z,97916.63
2023-03-02T20:52:12.707Z,97912.77
2023-03-02T20:54:45.705Z,97915.73
2023-03-02T20:57:18.506Z,97915.11
2023-03-02T20:59:50.732Z,97913.04
2023-03-02T21:02:23.238Z,97912.20
2023-03-02T21:04:54.423Z,97914.71
2023-03-02T21:07:25.511Z,97910.33
2023-03-02T21:09:56.436Z,97912.41
2023-03-02T21:12:27.556Z,97913.10
2023-03-02T21:14:57.531Z,97910.63
2023-03-02T21:17:29.081Z,97912.07
2023-03-02T21:20:00.834Z,97913.19
2023-03-02T21:22:33.519Z,97911.06
2023-03-02T21:25:09.053Z,97904.70
2023-03-02T21:27:41.203Z,97904.39
2023-03-02T21:30:19.814Z,97902.58
2023-03-02T21:32:51.657Z,97900.66
2023-03-02T21:35:24.454Z,97903.72
2023-03-02T21:37:57.860Z,97903.17
2023-03-02T21:40:32.242Z,97904.19
2023-03-02T21:43:05.459Z,97902.86
2023-03-02T21:45:37.268Z,97903.67
2023-03-02T21:48:09.366Z,97902.09
2023-03-02T21:50:41.082Z,97901.69
2023-03-02T21:53:11.992Z,97898.80
2023-03-02T21:55:45.720Z,97899.23
2023-03-02T21:58:17.181Z,97897.75
2023-03-02T22:00:48.337Z,97893.13
2023-03-02T22:03:19.444Z,97890.52
2023-03-02T22:05:50.723Z,97888.13
2023-03-02T22:08:22.791Z,97892.77
2023-03-02T22:10:54.437Z,97895.70
2023-03-02T22:13:27.579Z,97896.40
2023-03-02T22:16:12.507Z,97891.16
2023-03-02T22:18:44.926Z,97889.25
2023-03-02T22:21:28.981Z,97889.90
2023-03-02T22:24:24.971Z,97887.54
2023-03-02T22:27:01.481Z,97889.05
2023-03-02T22:29:40.136Z,97890.13
2023-03-02T22:32:18.924Z,97891.92
2023-03-02T22:34:54.578Z,97889.41
2023-03-02T22:37:28.146Z,97892.40
2023-03-02T22:40:02.516Z,97895.84
2023-03-02T22:42:33.781Z,97896.80
2023-03-02T22:45:14.906Z,97899.08
2023-03-02T22:47:49.124Z,97900.70
2023-03-02T22:50:25.469Z,97896.14
2023-03-02T22:52:58.413Z,97894.80
2023-03-02T22:55:38.065Z,97892.61
2023-03-02T22:58:43.766Z,97891.40
2023-03-02T23:01:24.424Z,97886.59
2023-03-02T23:03:59.343Z,97884.62
2023-03-02T23:06:32.902Z,97882.63
2023-03-02T23:09:07.876Z,97882.89
2023-03-02T23:11:42.368Z,97882.60
2023-03-02T23:14:21.916Z,97883.54
2023-03-02T23:16:56.397Z,97881.30
2023-03-02T23:19:28.909Z,97879.73
2023-03-02T23:22:00.390Z,97873.50
2023-03-02T23:24:31.304Z,97875.62
2023-03-02T23:27:02.153Z,97871.04
2023-03-02T23:29:32.765Z,97869.73
2023-03-02T23:32:04.682Z,97871.27
2023-03-02T23:34:35.819Z,97868.74
2023-03-02T23:37:07.012Z,97871.11
2023-03-02T23:39:37.969Z,97870.10
2023-03-02T23:42:09.513Z,97871.22
2023-03-02T23:44:40.659Z,97874.81
2023-03-02T23:47:11.600Z,97874.02
2023-03-02T23:49:42.794Z,97871.98
2023-03-02T23:52:13.803Z,97876.98
2023-03-02T23:54:46.369Z,97870.84
2023-03-02T23:57:17.504Z,97869.02
2023-03-02T23:59:48.753Z,97869.04
